Terminal Aerodrome Forecast
Issued by NWS

Home | Current Version | Previous Version | Text Only | Print | Product List | Glossary Off
Versions: 1 2 3 4 5 6 7 8 9 10 11 12 13 14 15 16 17

000
FTUS43 KMPX 241724
TAFRNH
TAF
KRNH 241724Z 2418/2518 20012G20KT P6SM SCT060 SCT150
     FM250000 19011KT P6SM VCSH SCT060 BKN120
      TEMPO 2500/2504 5SM -TSRA BKN050CB
     FM250500 18009KT P6SM VCTS SCT050CB BKN100
     FM250800 19007KT P6SM SCT060 BKN100
     FM251400 22009KT P6SM SCT110 BKN250=

USA.gov is the U.S. government's official web portal to all federal, state and local government web resources and services.